Terminal Aerodrome Forecast
Issued by NWS

Current Version | Previous Version | Text Only | Print | Product List | Glossary Off
Versions: 1 2 3 4 5 6 7 8 9 10 11 12 13 14 15 16 17 18 19

000
FTUS41 KILN 271446 AAB
TAFLUK
TAF AMD
KLUK 271446Z 2715/2812 25008KT P6SM BKN035
      TEMPO 2715/2716 BKN025
     FM272100 28008KT P6SM VCSH BKN040
     FM280000 32004KT P6SM BKN080
     FM280600 16004KT P6SM VCSH OVC050
     FM280900 17008KT P6SM -SHRA OVC025=

USA.gov is the U.S. government's official web portal to all federal, state and local government web resources and services.